createdAt,value
2019-04-07T00:03:27.798Z,70.34
2019-04-07T00:13:33.703Z,71.13
2019-04-07T00:23:38.951Z,70.78
2019-04-07T00:33:44.726Z,70.76
2019-04-07T00:43:50.611Z,71.16
2019-04-07T00:53:56.123Z,74.57
2019-04-07T01:04:01.414Z,74.13
2019-04-07T01:14:07.055Z,73.69
2019-04-07T01:24:12.334Z,74.83
2019-04-07T01:34:17.633Z,76.29
2019-04-07T01:44:24.433Z,77.88
2019-04-07T01:54:33.963Z,79.98
2019-04-07T02:04:43.891Z,78.72
2019-04-07T02:15:00.135Z,80.07
2019-04-07T02:25:25.109Z,80.84
2019-04-07T02:35:41.797Z,83.94
2019-04-07T02:45:52.326Z,83.59
2019-04-07T02:56:00.181Z,85.18
2019-04-07T03:06:07.191Z,86.02
2019-04-07T03:16:31.129Z,82.13
2019-04-07T03:26:38.020Z,81.39
2019-04-07T03:37:17.256Z,82.41
2019-04-07T03:47:03.308Z,83.00
2019-04-07T03:57:16.574Z,82.26
2019-04-07T04:07:31.547Z,83.91
2019-04-07T04:17:30.813Z,82.15
2019-04-07T04:27:36.837Z,82.15
2019-04-07T04:37:48.333Z,82.64
2019-04-07T04:47:48.967Z,84.49
2019-04-07T04:57:54.541Z,84.64
2019-04-07T05:08:03.574Z,84.20
2019-04-07T05:18:06.994Z,84.74
2019-04-07T05:28:12.389Z,83.46
2019-04-07T05:38:17.860Z,78.99
2019-04-07T05:48:23.615Z,74.82
2019-04-07T05:58:30.104Z,73.65
2019-04-07T06:08:37.961Z,74.56
2019-04-07T06:18:42.249Z,71.98
2019-04-07T06:28:51.496Z,60.71
2019-04-07T06:38:54.802Z,60.02
2019-04-07T06:49:11.319Z,51.83
2019-04-07T06:59:19.058Z,48.63
2019-04-07T07:09:29.065Z,49.79
2019-04-07T07:19:44.902Z,50.52
2019-04-07T07:29:52.832Z,42.72
2019-04-07T07:39:57.700Z,39.26
2019-04-07T07:50:05.424Z,41.46
2019-04-07T08:00:10.400Z,38.11
2019-04-07T08:10:15.959Z,37.58
2019-04-07T08:20:21.991Z,30.84
2019-04-07T08:30:28.288Z,30.43
2019-04-07T08:40:36.514Z,37.90
2019-04-07T08:50:41.144Z,38.14
2019-04-07T09:00:51.021Z,38.42
2019-04-07T09:11:06.190Z,39.88
2019-04-07T09:21:33.654Z,36.84
2019-04-07T09:31:47.714Z,32.81
2019-04-07T09:42:01.110Z,30.69
2019-04-07T09:52:25.431Z,33.68
2019-04-07T10:02:51.627Z,31.89
2019-04-07T10:13:14.731Z,31.88
2019-04-07T10:23:25.282Z,32.72
2019-04-07T10:33:32.453Z,33.86
2019-04-07T10:43:52.501Z,28.95
2019-04-07T10:54:14.502Z,30.47
2019-04-07T11:04:34.040Z,31.39
2019-04-07T11:14:51.183Z,28.30
2019-04-07T11:25:01.103Z,31.46
2019-04-07T11:35:28.717Z,30.19
2019-04-07T11:45:34.608Z,37.63
2019-04-07T11:55:58.958Z,38.43
2019-04-07T12:06:24.642Z,31.06
2019-04-07T12:16:46.439Z,31.83
2019-04-07T12:26:53.826Z,34.10
2019-04-07T12:37:06.539Z,35.84
2019-04-07T12:47:15.329Z,31.62
2019-04-07T12:57:26.156Z,30.71
2019-04-07T13:07:52.331Z,32.14
2019-04-07T13:18:09.684Z,38.70
2019-04-07T13:28:26.326Z,38.97
2019-04-07T13:38:40.441Z,39.10
2019-04-07T13:48:52.555Z,38.34
2019-04-07T13:58:56.614Z,37.40
2019-04-07T14:09:04.291Z,37.15
2019-04-07T14:19:13.428Z,37.57
2019-04-07T14:29:39.437Z,39.46
2019-04-07T14:39:46.632Z,41.73
2019-04-07T14:49:53.658Z,43.18
2019-04-07T15:00:14.095Z,44.60
2019-04-07T15:10:28.625Z,45.25
2019-04-07T15:20:34.496Z,46.56
2019-04-07T15:30:40.637Z,47.03
2019-04-07T15:40:47.092Z,48.03
2019-04-07T15:50:52.973Z,48.72
2019-04-07T16:00:59.028Z,48.57
2019-04-07T16:11:05.684Z,49.01
2019-04-07T16:21:12.414Z,49.78
2019-04-07T16:31:19.802Z,51.26
2019-04-07T16:41:25.968Z,53.09
2019-04-07T16:51:33.910Z,55.32
2019-04-07T17:01:39.916Z,56.73
2019-04-07T17:11:46.105Z,57.49
2019-04-07T17:21:52.031Z,58.74
2019-04-07T17:32:01.288Z,58.95
2019-04-07T17:42:10.481Z,61.77
2019-04-07T17:52:22.624Z,61.68
2019-04-07T18:02:44.712Z,62.46
2019-04-07T18:12:56.985Z,65.15
2019-04-07T18:23:13.172Z,65.74
2019-04-07T18:33:33.579Z,66.59
2019-04-07T18:43:53.792Z,66.47
2019-04-07T18:54:05.862Z,67.21
2019-04-07T19:04:16.920Z,70.09
2019-04-07T19:14:39.442Z,71.75
2019-04-07T19:24:42.764Z,72.08
2019-04-07T19:34:50.494Z,73.17
2019-04-07T19:45:13.347Z,73.87
2019-04-07T19:55:26.240Z,74.73
2019-04-07T20:05:32.561Z,76.87
2019-04-07T20:15:55.922Z,77.40
2019-04-07T20:26:02.296Z,77.12
2019-04-07T20:36:13.847Z,78.66
2019-04-07T20:46:34.830Z,79.46
2019-04-07T20:56:44.963Z,78.17
2019-04-07T21:06:54.970Z,77.30
2019-04-07T21:17:10.842Z,79.10
2019-04-07T21:27:33.712Z,79.94
2019-04-07T21:37:56.904Z,80.09
2019-04-07T21:48:09.710Z,81.70
2019-04-07T21:58:22.341Z,82.09
2019-04-07T22:08:28.463Z,81.72
2019-04-07T22:18:36.501Z,80.61
2019-04-07T22:28:41.485Z,82.45
2019-04-07T22:38:46.981Z,83.11
2019-04-07T22:48:55.187Z,83.16
2019-04-07T22:59:00.282Z,84.45
2019-04-07T23:09:07.965Z,84.00
2019-04-07T23:19:14.312Z,82.63
2019-04-07T23:29:19.868Z,83.86
2019-04-07T23:39:25.162Z,81.52
2019-04-07T23:49:30.277Z,83.43
2019-04-07T23:59:35.888Z,83.75
